createdAt,value
2018-09-09T00:00:02.294Z,54.00
2018-09-09T00:02:29.823Z,53.90
2018-09-09T00:04:57.346Z,53.80
2018-09-09T00:07:24.985Z,54.10
2018-09-09T00:09:52.568Z,54.00
2018-09-09T00:12:20.478Z,54.30
2018-09-09T00:14:48.218Z,54.40
2018-09-09T00:17:15.839Z,54.40
2018-09-09T00:19:43.357Z,54.60
2018-09-09T00:22:11.032Z,54.50
2018-09-09T00:24:38.475Z,54.10
2018-09-09T00:27:06.159Z,54.00
2018-09-09T00:29:33.804Z,53.60
2018-09-09T00:32:01.525Z,53.50
2018-09-09T00:34:28.996Z,53.10
2018-09-09T00:36:56.575Z,53.10
2018-09-09T00:39:24.123Z,53.20
2018-09-09T00:41:51.670Z,53.50
2018-09-09T00:44:19.267Z,53.40
2018-09-09T00:46:46.911Z,54.20
2018-09-09T00:49:20.161Z,54.30
2018-09-09T00:51:53.324Z,54.30
2018-09-09T00:54:20.852Z,54.40
2018-09-09T00:56:48.371Z,54.70
2018-09-09T00:59:16.028Z,54.30
2018-09-09T01:01:43.517Z,54.40
2018-09-09T01:04:11.110Z,54.80
2018-09-09T01:06:38.691Z,54.90
2018-09-09T01:09:08.334Z,54.70
2018-09-09T01:11:36.554Z,54.90
2018-09-09T01:14:04.772Z,55.40
2018-09-09T01:16:32.597Z,55.40
2018-09-09T01:19:00.245Z,55.20
2018-09-09T01:21:27.843Z,56.20
2018-09-09T01:23:55.592Z,56.20
2018-09-09T01:26:23.239Z,56.20
2018-09-09T01:28:50.759Z,56.90
2018-09-09T01:31:18.386Z,56.80
2018-09-09T01:33:45.880Z,56.30
2018-09-09T01:36:13.521Z,56.00
2018-09-09T01:38:42.717Z,56.10
2018-09-09T01:41:11.933Z,56.20
2018-09-09T01:43:39.522Z,56.70
2018-09-09T01:46:07.005Z,56.50
2018-09-09T01:48:34.511Z,56.10
2018-09-09T01:51:01.972Z,55.20
2018-09-09T01:53:29.441Z,55.90
2018-09-09T01:55:57.036Z,55.40
2018-09-09T01:58:24.568Z,55.60
2018-09-09T02:00:52.162Z,56.10
2018-09-09T02:05:48.268Z,56.30
2018-09-09T02:08:16.879Z,55.90
2018-09-09T02:10:45.880Z,55.20
2018-09-09T02:13:14.411Z,55.40
2018-09-09T02:15:42.008Z,56.00
2018-09-09T02:20:37.016Z,56.60
2018-09-09T02:23:04.782Z,56.90
2018-09-09T02:25:32.276Z,56.80
2018-09-09T02:27:59.774Z,57.00
2018-09-09T02:30:27.779Z,57.50
2018-09-09T02:32:55.277Z,57.50
2018-09-09T02:35:23.075Z,57.40
2018-09-09T02:37:50.535Z,57.60
2018-09-09T02:40:18.234Z,57.60
2018-09-09T02:42:45.706Z,57.80
2018-09-09T02:45:13.208Z,58.10
2018-09-09T02:47:40.725Z,58.40
2018-09-09T02:50:08.188Z,58.40
2018-09-09T02:52:35.712Z,58.30
2018-09-09T02:55:04.098Z,58.90
2018-09-09T02:57:32.226Z,58.30
2018-09-09T02:59:59.881Z,58.10
2018-09-09T03:02:27.533Z,58.60
2018-09-09T03:04:54.982Z,58.00
2018-09-09T03:07:22.683Z,58.00
2018-09-09T03:09:50.226Z,57.60
2018-09-09T03:12:17.686Z,57.30
2018-09-09T03:14:45.275Z,56.90
2018-09-09T03:17:13.305Z,57.60
2018-09-09T03:19:40.874Z,57.60
2018-09-09T03:22:08.331Z,55.50
2018-09-09T03:24:35.899Z,57.80
2018-09-09T03:27:03.460Z,57.80
2018-09-09T03:29:31.089Z,58.10
2018-09-09T03:31:58.536Z,57.60
2018-09-09T03:34:25.979Z,57.60
2018-09-09T03:36:53.424Z,58.10
2018-09-09T03:39:20.936Z,57.90
2018-09-09T03:41:48.511Z,58.30
2018-09-09T03:44:15.985Z,58.70
2018-09-09T03:46:43.452Z,59.20
2018-09-09T03:49:11.129Z,59.00
2018-09-09T03:51:38.863Z,58.30
2018-09-09T03:54:06.407Z,58.30
2018-09-09T03:56:33.912Z,57.90
2018-09-09T03:59:01.493Z,57.60
2018-09-09T04:01:29.045Z,58.10
2018-09-09T04:03:56.737Z,58.20
2018-09-09T04:06:24.812Z,58.90
2018-09-09T04:08:52.318Z,59.20
2018-09-09T04:11:20.655Z,59.80
2018-09-09T04:13:48.156Z,59.90
2018-09-09T04:16:16.139Z,59.80
2018-09-09T04:18:43.678Z,59.60
2018-09-09T04:21:11.094Z,58.90
2018-09-09T04:23:38.922Z,59.10
2018-09-09T04:26:06.837Z,58.30
2018-09-09T04:28:34.400Z,58.40
2018-09-09T04:31:02.125Z,59.30
2018-09-09T04:33:29.584Z,58.40
2018-09-09T04:35:57.034Z,58.80
2018-09-09T04:38:24.487Z,58.50
2018-09-09T04:40:52.040Z,58.30
2018-09-09T04:43:19.616Z,58.20
2018-09-09T04:45:47.117Z,58.30
2018-09-09T04:48:14.638Z,58.30
2018-09-09T04:50:42.501Z,58.20
2018-09-09T04:53:10.063Z,58.90
2018-09-09T04:55:37.952Z,59.10
2018-09-09T04:58:05.418Z,60.00
2018-09-09T05:00:33.701Z,60.30
2018-09-09T05:03:01.346Z,60.40
2018-09-09T05:05:29.273Z,61.00
2018-09-09T05:07:57.395Z,60.70
2018-09-09T05:10:24.861Z,61.50
2018-09-09T05:12:52.319Z,60.70
2018-09-09T05:15:21.147Z,60.30
2018-09-09T05:17:48.652Z,59.30
2018-09-09T05:20:17.085Z,60.10
2018-09-09T05:22:44.563Z,58.90
2018-09-09T05:25:12.077Z,59.20
2018-09-09T05:27:39.597Z,60.10
2018-09-09T05:30:07.736Z,60.40
2018-09-09T05:32:35.208Z,59.50
2018-09-09T05:35:02.912Z,59.70
2018-09-09T05:37:30.487Z,59.50
2018-09-09T05:39:57.992Z,58.50
2018-09-09T05:42:25.679Z,58.50
2018-09-09T05:44:53.137Z,58.60
2018-09-09T05:47:20.774Z,59.20
2018-09-09T05:49:48.255Z,59.00
2018-09-09T05:52:15.975Z,59.20
2018-09-09T05:54:43.576Z,58.60
2018-09-09T05:57:11.129Z,59.40
2018-09-09T05:59:38.610Z,59.20
2018-09-09T06:02:06.092Z,60.30
2018-09-09T06:04:33.758Z,59.40
2018-09-09T06:07:01.225Z,59.90
2018-09-09T06:09:28.767Z,58.70
2018-09-09T06:11:57.898Z,58.70
2018-09-09T06:14:26.218Z,59.00
2018-09-09T06:19:22.053Z,58.80
2018-09-09T06:21:50.692Z,58.80
2018-09-09T06:24:18.216Z,58.80
2018-09-09T06:26:45.736Z,58.80
2018-09-09T06:29:14.080Z,58.90
2018-09-09T06:31:42.889Z,58.90
2018-09-09T06:34:10.532Z,58.80
2018-09-09T06:36:38.843Z,58.80
2018-09-09T06:41:36.488Z,58.50
2018-09-09T06:44:04.008Z,58.80
2018-09-09T06:48:59.065Z,58.80
2018-09-09T06:51:27.090Z,59.00
2018-09-09T06:53:54.659Z,59.10
2018-09-09T06:56:22.870Z,60.20
2018-09-09T06:58:50.732Z,58.90
2018-09-09T07:01:20.207Z,59.30
2018-09-09T07:03:48.064Z,58.40
2018-09-09T07:06:15.490Z,58.00
2018-09-09T07:08:45.012Z,56.00
2018-09-09T07:11:12.701Z,55.90
2018-09-09T07:13:40.256Z,56.10
2018-09-09T07:16:07.726Z,56.00
2018-09-09T07:18:35.331Z,56.20
2018-09-09T07:21:02.940Z,56.20
2018-09-09T07:23:30.610Z,55.50
2018-09-09T07:25:59.252Z,54.60
2018-09-09T07:28:26.796Z,53.20
2018-09-09T07:30:54.295Z,54.20
2018-09-09T07:33:21.993Z,53.90
2018-09-09T07:35:49.684Z,54.40
2018-09-09T07:38:17.289Z,53.00
2018-09-09T07:40:44.950Z,53.00
2018-09-09T07:43:12.495Z,53.40
2018-09-09T07:45:40.658Z,53.00
2018-09-09T07:48:08.133Z,51.20
2018-09-09T07:50:35.838Z,52.00
2018-09-09T07:53:03.937Z,51.90
2018-09-09T07:55:31.392Z,51.60
2018-09-09T07:57:58.998Z,50.90
2018-09-09T08:00:26.580Z,50.10
2018-09-09T08:02:54.073Z,49.30
2018-09-09T08:05:21.572Z,48.80
2018-09-09T08:07:49.125Z,48.10
2018-09-09T08:10:16.637Z,47.80
2018-09-09T08:12:44.233Z,47.20
2018-09-09T08:15:11.805Z,46.50
2018-09-09T08:17:39.505Z,46.20
2018-09-09T08:20:07.073Z,47.00
2018-09-09T08:22:34.587Z,46.80
2018-09-09T08:25:02.128Z,46.70
2018-09-09T08:27:30.090Z,48.10
2018-09-09T08:29:57.667Z,47.00
2018-09-09T08:32:25.168Z,47.20
2018-09-09T08:37:20.121Z,46.70
2018-09-09T08:39:47.618Z,46.20
2018-09-09T08:42:15.113Z,47.10
2018-09-09T08:44:42.625Z,47.10
2018-09-09T08:47:10.175Z,46.20
2018-09-09T08:49:37.674Z,46.60
2018-09-09T08:52:05.394Z,47.20
2018-09-09T08:54:32.837Z,45.70
2018-09-09T08:57:00.387Z,46.20
2018-09-09T08:59:27.971Z,43.90
2018-09-09T09:01:55.453Z,44.20
2018-09-09T09:04:22.996Z,42.50
2018-09-09T09:06:50.486Z,42.20
2018-09-09T09:09:18.037Z,42.60
2018-09-09T09:11:45.566Z,42.80
2018-09-09T09:14:13.046Z,43.70
2018-09-09T09:19:08.027Z,45.10
2018-09-09T09:21:35.568Z,45.10
2018-09-09T09:24:03.100Z,46.10
2018-09-09T09:26:30.762Z,46.60
2018-09-09T09:31:25.669Z,45.50
2018-09-09T09:33:53.120Z,46.10
2018-09-09T09:36:20.785Z,46.10
2018-09-09T09:38:48.249Z,45.40
2018-09-09T09:41:15.717Z,45.70
2018-09-09T09:43:43.202Z,46.20
2018-09-09T09:46:10.736Z,46.50
2018-09-09T09:48:38.507Z,46.50
2018-09-09T09:51:06.040Z,46.60
2018-09-09T09:56:00.996Z,47.70
2018-09-09T09:58:28.476Z,47.90
2018-09-09T10:00:58.011Z,47.90
2018-09-09T10:03:25.551Z,48.00
2018-09-09T10:10:48.075Z,47.50
2018-09-09T10:13:15.625Z,47.50
2018-09-09T10:15:43.137Z,47.40
2018-09-09T10:18:10.626Z,47.30
2018-09-09T10:20:38.109Z,47.20
2018-09-09T10:23:05.685Z,43.40
2018-09-09T10:25:33.101Z,44.40
2018-09-09T10:28:01.203Z,42.70
2018-09-09T10:30:28.738Z,42.70
2018-09-09T10:32:56.227Z,41.20
2018-09-09T10:35:24.257Z,41.30
2018-09-09T10:37:51.788Z,41.90
2018-09-09T10:40:19.254Z,41.40
2018-09-09T10:42:46.757Z,40.50
2018-09-09T10:45:14.624Z,40.20
2018-09-09T10:47:42.330Z,40.50
2018-09-09T10:50:09.929Z,38.90
2018-09-09T10:52:38.317Z,38.00
2018-09-09T10:55:05.912Z,38.50
2018-09-09T10:57:33.414Z,38.40
2018-09-09T11:00:01.010Z,37.80
2018-09-09T11:02:28.551Z,35.90
2018-09-09T11:04:56.096Z,37.00
2018-09-09T11:07:23.618Z,37.00
2018-09-09T11:09:51.163Z,36.90
2018-09-09T11:12:22.978Z,35.50
2018-09-09T11:14:50.790Z,35.10
2018-09-09T11:17:18.304Z,34.30
2018-09-09T11:19:45.964Z,34.40
2018-09-09T11:22:14.513Z,34.40
2018-09-09T11:24:42.035Z,34.60
2018-09-09T11:27:09.764Z,34.20
2018-09-09T11:29:37.244Z,33.50
2018-09-09T11:32:04.804Z,32.40
2018-09-09T11:34:32.285Z,31.90
2018-09-09T11:36:59.805Z,32.00
2018-09-09T11:39:27.308Z,30.60
2018-09-09T11:41:54.856Z,30.40
2018-09-09T11:44:22.431Z,30.60
2018-09-09T11:46:50.000Z,30.20
2018-09-09T11:49:17.532Z,30.00
2018-09-09T11:51:45.116Z,30.00
2018-09-09T11:56:40.185Z,31.10
2018-09-09T11:59:07.691Z,31.20
2018-09-09T12:01:35.204Z,30.60
2018-09-09T12:04:02.781Z,31.00
2018-09-09T12:06:30.322Z,30.30
2018-09-09T12:08:57.861Z,31.10
2018-09-09T12:11:25.419Z,34.40
2018-09-09T12:13:52.948Z,31.60
2018-09-09T12:16:21.350Z,33.50
2018-09-09T12:21:16.432Z,30.00
2018-09-09T12:26:11.429Z,30.90
2018-09-09T12:28:38.977Z,31.80
2018-09-09T12:31:06.545Z,29.50
2018-09-09T12:33:34.013Z,29.60
2018-09-09T12:36:01.558Z,30.00
2018-09-09T12:38:29.104Z,29.90
2018-09-09T12:40:56.720Z,29.80
2018-09-09T12:43:30.131Z,30.00
2018-09-09T12:46:03.361Z,29.50
2018-09-09T12:48:36.652Z,29.40
2018-09-09T12:51:04.220Z,29.90
2018-09-09T12:53:31.723Z,30.50
2018-09-09T12:55:59.252Z,29.80
2018-09-09T12:58:26.860Z,30.30
2018-09-09T13:00:54.514Z,30.30
2018-09-09T13:03:22.032Z,29.70
2018-09-09T13:05:49.492Z,31.10
2018-09-09T13:08:19.405Z,32.00
2018-09-09T13:10:46.948Z,30.00
2018-09-09T13:13:14.871Z,31.80
2018-09-09T13:15:42.372Z,32.40
2018-09-09T13:18:09.870Z,31.60
2018-09-09T13:20:37.351Z,31.00
2018-09-09T13:23:04.933Z,32.10
2018-09-09T13:25:32.417Z,31.50
2018-09-09T13:27:59.977Z,30.40
2018-09-09T13:30:27.550Z,30.40
2018-09-09T13:32:55.099Z,30.00
2018-09-09T13:35:23.400Z,30.70
2018-09-09T13:37:50.920Z,30.20
2018-09-09T13:40:18.450Z,31.10
2018-09-09T13:42:45.969Z,30.90
2018-09-09T13:45:13.479Z,30.20
2018-09-09T13:47:41.108Z,30.20
2018-09-09T13:50:08.657Z,31.20
2018-09-09T13:52:36.284Z,31.90
2018-09-09T13:55:03.774Z,31.80
2018-09-09T13:57:31.412Z,31.50
2018-09-09T13:59:58.960Z,29.80
2018-09-09T14:02:26.494Z,29.70
2018-09-09T14:04:54.024Z,29.20
2018-09-09T14:07:22.395Z,31.70
2018-09-09T14:09:49.889Z,28.70
2018-09-09T14:12:17.402Z,29.70
2018-09-09T14:14:44.953Z,31.10
2018-09-09T14:17:12.560Z,28.90
2018-09-09T14:19:40.155Z,29.70
2018-09-09T14:22:07.743Z,29.90
2018-09-09T14:24:35.244Z,29.90
2018-09-09T14:27:02.737Z,32.70
2018-09-09T14:29:30.242Z,32.10
2018-09-09T14:31:57.742Z,32.80
2018-09-09T14:34:25.384Z,32.90
2018-09-09T14:36:52.892Z,32.20
2018-09-09T14:39:20.387Z,32.90
2018-09-09T14:41:48.113Z,29.30
2018-09-09T14:44:15.613Z,32.10
2018-09-09T14:46:43.141Z,31.50
2018-09-09T14:49:10.710Z,32.60
2018-09-09T14:51:38.272Z,32.40
2018-09-09T14:54:05.756Z,29.40
2018-09-09T14:56:33.319Z,31.00
2018-09-09T14:59:00.855Z,33.20
2018-09-09T15:01:28.421Z,29.90
2018-09-09T15:03:55.934Z,32.70
2018-09-09T15:06:23.517Z,32.40
2018-09-09T15:08:51.047Z,32.30
2018-09-09T15:11:18.537Z,31.50
2018-09-09T15:13:46.113Z,32.40
2018-09-09T15:16:13.852Z,31.60
2018-09-09T15:18:41.470Z,32.90
2018-09-09T15:21:09.045Z,32.30
2018-09-09T15:23:36.642Z,30.90
2018-09-09T15:26:04.199Z,33.50
2018-09-09T15:28:32.351Z,33.30
2018-09-09T15:30:59.875Z,34.20
2018-09-09T15:35:54.842Z,33.10
2018-09-09T15:38:22.461Z,31.20
2018-09-09T15:40:50.001Z,31.90
2018-09-09T15:43:17.603Z,33.80
2018-09-09T15:45:45.125Z,31.90
2018-09-09T15:48:13.226Z,31.90
2018-09-09T15:50:40.818Z,32.60
2018-09-09T15:53:08.388Z,31.90
2018-09-09T15:55:35.959Z,31.90
2018-09-09T15:58:03.539Z,33.10
2018-09-09T16:00:31.652Z,33.70
2018-09-09T16:02:59.134Z,33.00
2018-09-09T16:05:27.791Z,34.20
2018-09-09T16:07:55.300Z,33.30
2018-09-09T16:10:22.997Z,34.20
2018-09-09T16:12:50.566Z,31.70
2018-09-09T16:15:22.577Z,32.50
2018-09-09T16:17:52.639Z,33.80
2018-09-09T16:20:20.382Z,34.60
2018-09-09T16:22:48.125Z,34.70
2018-09-09T16:25:17.198Z,34.60
2018-09-09T16:27:45.617Z,34.90
2018-09-09T16:30:13.192Z,36.60
2018-09-09T16:32:40.655Z,39.70
2018-09-09T16:35:08.238Z,35.40
2018-09-09T16:37:35.760Z,38.10
2018-09-09T16:40:03.346Z,35.20
2018-09-09T16:44:59.218Z,34.70
2018-09-09T16:47:26.770Z,37.20
2018-09-09T16:49:54.274Z,33.50
2018-09-09T16:52:21.856Z,36.10
2018-09-09T16:54:49.375Z,35.70
2018-09-09T16:57:16.901Z,36.00
2018-09-09T16:59:44.457Z,34.60
2018-09-09T17:02:12.269Z,36.20
2018-09-09T17:04:39.948Z,36.30
2018-09-09T17:07:07.499Z,36.90
2018-09-09T17:09:35.489Z,36.70
2018-09-09T17:12:03.066Z,35.50
2018-09-09T17:14:30.631Z,36.30
2018-09-09T17:16:58.157Z,37.20
2018-09-09T17:19:25.683Z,36.10
2018-09-09T17:21:53.311Z,37.20
2018-09-09T17:24:20.847Z,37.40
2018-09-09T17:26:48.444Z,37.00
2018-09-09T17:29:16.025Z,37.00
2018-09-09T17:31:43.574Z,37.60
2018-09-09T17:34:11.111Z,37.80
2018-09-09T17:36:38.660Z,38.00
2018-09-09T17:39:07.630Z,38.40
2018-09-09T17:41:35.127Z,39.10
2018-09-09T17:44:02.861Z,39.40
2018-09-09T17:46:30.383Z,39.30
2018-09-09T17:48:57.971Z,39.40
2018-09-09T17:51:25.553Z,40.00
2018-09-09T17:53:53.162Z,39.80
2018-09-09T17:56:20.687Z,40.40
2018-09-09T17:58:48.327Z,40.50
2018-09-09T18:01:15.812Z,41.70
2018-09-09T18:03:43.370Z,42.10
2018-09-09T18:06:10.916Z,42.60
2018-09-09T18:08:38.465Z,42.20
2018-09-09T18:11:05.977Z,42.10
2018-09-09T18:13:33.556Z,42.50
2018-09-09T18:16:01.180Z,42.10
2018-09-09T18:18:28.723Z,42.10
2018-09-09T18:20:56.463Z,41.80
2018-09-09T18:23:23.940Z,42.10
2018-09-09T18:25:51.519Z,42.20
2018-09-09T18:28:19.053Z,42.60
2018-09-09T18:30:46.639Z,42.80
2018-09-09T18:33:14.171Z,44.40
2018-09-09T18:35:41.717Z,43.20
2018-09-09T18:38:09.314Z,42.90
2018-09-09T18:40:36.860Z,43.90
2018-09-09T18:43:04.402Z,44.50
2018-09-09T18:45:31.926Z,44.60
2018-09-09T18:47:59.532Z,44.60
2018-09-09T18:50:27.072Z,45.20
2018-09-09T18:52:54.633Z,45.00
2018-09-09T18:55:22.176Z,45.40
2018-09-09T18:57:49.700Z,45.40
2018-09-09T19:00:17.201Z,45.80
2018-09-09T19:02:44.729Z,44.60
2018-09-09T19:05:12.328Z,44.60
2018-09-09T19:07:39.943Z,44.60
2018-09-09T19:10:07.542Z,44.20
2018-09-09T19:12:35.063Z,43.90
2018-09-09T19:15:02.682Z,43.70
2018-09-09T19:17:30.198Z,43.60
2018-09-09T19:19:57.716Z,43.90
2018-09-09T19:22:25.318Z,43.80
2018-09-09T19:24:52.857Z,43.80
2018-09-09T19:27:20.413Z,44.30
2018-09-09T19:29:48.027Z,43.70
2018-09-09T19:32:15.583Z,43.80
2018-09-09T19:34:43.158Z,44.30
2018-09-09T19:37:10.733Z,43.40
2018-09-09T19:39:38.293Z,43.60
2018-09-09T19:44:34.208Z,45.20
2018-09-09T19:47:02.120Z,45.60
2018-09-09T19:51:57.285Z,46.00
2018-09-09T19:54:25.053Z,43.90
2018-09-09T19:56:52.716Z,44.00
2018-09-09T19:59:20.421Z,44.50
2018-09-09T20:01:47.895Z,44.90
2018-09-09T20:04:15.491Z,45.40
2018-09-09T20:06:43.282Z,45.00
2018-09-09T20:09:10.878Z,47.10
2018-09-09T20:14:06.619Z,44.80
2018-09-09T20:16:34.199Z,44.90
2018-09-09T20:19:01.861Z,45.10
2018-09-09T20:21:29.401Z,45.60
2018-09-09T20:23:57.017Z,45.40
2018-09-09T20:31:19.524Z,45.00
2018-09-09T20:36:14.756Z,45.20
2018-09-09T20:38:42.406Z,45.10
2018-09-09T20:41:10.017Z,45.10
2018-09-09T20:43:37.550Z,45.20
2018-09-09T20:46:05.060Z,45.60
2018-09-09T20:48:32.553Z,45.00
2018-09-09T20:51:00.271Z,45.60
2018-09-09T20:53:27.829Z,45.00
2018-09-09T20:55:55.350Z,45.20
2018-09-09T20:58:23.134Z,45.90
2018-09-09T21:00:55.463Z,46.00
2018-09-09T21:03:23.674Z,45.90
2018-09-09T21:08:19.384Z,45.90
2018-09-09T21:10:47.193Z,45.60
2018-09-09T21:13:15.338Z,46.10
2018-09-09T21:15:43.299Z,46.20
2018-09-09T21:18:10.868Z,46.00
2018-09-09T21:20:38.394Z,46.30
2018-09-09T21:23:05.952Z,46.30
2018-09-09T21:25:33.566Z,46.20
2018-09-09T21:30:29.319Z,46.50
2018-09-09T21:32:57.044Z,46.40
2018-09-09T21:35:24.604Z,46.60
2018-09-09T21:37:52.263Z,46.40
2018-09-09T21:40:19.817Z,46.60
2018-09-09T21:42:47.454Z,47.40
2018-09-09T21:45:15.142Z,46.50
2018-09-09T21:47:43.370Z,46.80
2018-09-09T21:50:11.085Z,46.90
2018-09-09T21:52:38.632Z,46.60
2018-09-09T21:55:08.824Z,49.40
2018-09-09T22:00:08.075Z,47.70
2018-09-09T22:05:04.020Z,48.50
2018-09-09T22:07:31.932Z,47.50
2018-09-09T22:17:26.554Z,48.30
2018-09-09T22:22:22.807Z,47.70
2018-09-09T22:24:52.395Z,48.00
2018-09-09T22:27:20.312Z,47.60
2018-09-09T22:29:47.828Z,48.40
2018-09-09T22:34:43.620Z,47.60
2018-09-09T22:37:11.170Z,47.20
2018-09-09T22:39:44.242Z,51.40
2018-09-09T22:44:40.792Z,51.10
2018-09-09T22:47:11.558Z,47.40
2018-09-09T22:49:39.222Z,47.50
2018-09-09T22:52:06.676Z,47.80
2018-09-09T22:57:03.936Z,49.50
2018-09-09T22:59:39.189Z,51.90
2018-09-09T23:02:06.780Z,47.80
2018-09-09T23:07:01.657Z,48.50
2018-09-09T23:09:29.162Z,48.00
2018-09-09T23:16:51.793Z,47.90
2018-09-09T23:21:50.969Z,49.00
2018-09-09T23:24:18.517Z,48.80
2018-09-09T23:26:46.094Z,49.50
2018-09-09T23:29:13.556Z,50.20
2018-09-09T23:39:09.219Z,48.70
2018-09-09T23:41:37.394Z,48.90
2018-09-09T23:44:05.383Z,49.30
2018-09-09T23:46:33.916Z,49.40
2018-09-09T23:56:24.173Z,49.80
